Portada
METAR-TAF:

METAR-TAF

Aeroports :

Aeroport de Rabat

Rabat, Marroc

latitud: 34-03N, longitud: 006-46W, altitud: 84 m

Observació

L'informe es va fer fa 18 minuts, a les 19:30 UTC
Vent 6 kt del Est/Nord-Est, variant entre Nord/Nord-Est i Est/Sud-Est
Temperatura 18°C
Humitat 22%
Pressió 1016 hPa
Visibilitat 10 km o més
sense núvols per sota de 1500 mi sense presència de cumulonimbus.

METAR: GMME 211930Z 07006KT 030V110 CAVOK 18/M04 Q1016 NOSIG

Hora: 19:48 (19:48 UTC)

Pronòstic

L'informe es va fer fa 2 hores i 48 minuts, a les 17:00 UTC
Pronòstic vàlid del 21 a les 18 UTC al 22 a les 24 UTC
Vent 14 kt del Est/Nord-Est amb ràfegues de 24 kt
Visibilitat: 8000 m

TAF: GMME 211700Z 2118/2224 07014G24KT 8000 NSC

Observacions i pronòstics meteorològics de més de 4000 aeroports (METAR i TAF).

Les estacions disponibles són els punts grocs i vermells al mapa.

Posi el ratolí al punt desitjat per veure el nom de l'estació.

Feu clic per veure les observacions i els pronòstics meteorològics.

Per canviar el mapa: feu clic els botons verds amb una creu de color negre per apropar; al botó verd amb un guió per allunyar la imatge; o en les fletxes verdes per a mapes adjacents.


METAR-TAF: